createdAt,value
2018-08-10T00:00:54.850Z,18.20
2018-08-10T00:03:22.613Z,18.10
2018-08-10T00:05:50.354Z,17.90
2018-08-10T00:08:18.098Z,17.70
2018-08-10T00:10:45.873Z,17.70
2018-08-10T00:13:13.633Z,17.70
2018-08-10T00:15:41.414Z,17.60
2018-08-10T00:18:09.210Z,17.50
2018-08-10T00:20:36.973Z,17.60
2018-08-10T00:23:04.743Z,17.40
2018-08-10T00:25:32.509Z,17.20
2018-08-10T00:28:00.297Z,17.10
2018-08-10T00:30:28.078Z,16.90
2018-08-10T00:32:55.818Z,16.90
2018-08-10T00:35:23.569Z,16.70
2018-08-10T00:37:51.309Z,16.50
2018-08-10T00:40:21.066Z,16.50
2018-08-10T00:42:48.855Z,16.50
2018-08-10T00:45:17.293Z,16.50
2018-08-10T00:47:45.441Z,16.40
2018-08-10T00:50:14.161Z,16.30
2018-08-10T00:52:42.514Z,16.10
2018-08-10T00:55:11.846Z,16.10
2018-08-10T00:57:39.736Z,15.90
2018-08-10T01:00:09.322Z,15.80
2018-08-10T01:02:37.358Z,15.70
2018-08-10T01:05:06.074Z,15.70
2018-08-10T01:07:34.022Z,15.60
2018-08-10T01:10:01.805Z,15.60
2018-08-10T01:12:29.599Z,15.50
2018-08-10T01:14:57.344Z,15.40
2018-08-10T01:17:25.094Z,15.30
2018-08-10T01:19:52.854Z,15.50
2018-08-10T01:22:20.605Z,15.50
2018-08-10T01:24:48.391Z,15.30
2018-08-10T01:27:21.629Z,15.20
2018-08-10T01:29:49.365Z,15.30
2018-08-10T01:32:17.113Z,15.20
2018-08-10T01:34:44.876Z,15.20
2018-08-10T01:37:12.685Z,15.10
2018-08-10T01:39:40.405Z,15.00
2018-08-10T01:42:08.181Z,15.00
2018-08-10T01:44:35.908Z,14.80
2018-08-10T01:47:03.834Z,14.90
2018-08-10T01:49:31.598Z,14.90
2018-08-10T01:51:59.450Z,14.80
2018-08-10T01:54:27.173Z,14.80
2018-08-10T01:56:55.062Z,14.90
2018-08-10T01:59:22.790Z,14.80
2018-08-10T02:01:50.541Z,14.80
2018-08-10T02:04:18.282Z,14.80
2018-08-10T02:06:46.050Z,14.80
2018-08-10T02:09:13.807Z,14.70
2018-08-10T02:11:41.597Z,14.70
2018-08-10T02:14:09.350Z,14.60
2018-08-10T02:16:37.097Z,14.50
2018-08-10T02:19:04.826Z,14.50
2018-08-10T02:21:32.577Z,14.50
2018-08-10T02:24:00.306Z,14.50
2018-08-10T02:26:28.103Z,14.40
2018-08-10T02:28:55.833Z,14.40
2018-08-10T02:31:23.602Z,14.40
2018-08-10T02:33:51.338Z,14.40
2018-08-10T02:36:19.105Z,14.40
2018-08-10T02:38:46.862Z,14.40
2018-08-10T02:41:14.622Z,14.30
2018-08-10T02:43:42.349Z,14.30
2018-08-10T02:46:10.101Z,14.30
2018-08-10T02:48:37.877Z,14.20
2018-08-10T02:51:05.609Z,14.30
2018-08-10T02:53:33.377Z,14.20
2018-08-10T02:56:01.126Z,14.20
2018-08-10T02:58:28.882Z,14.10
2018-08-10T03:00:56.613Z,14.10
2018-08-10T03:03:24.370Z,14.10
2018-08-10T03:05:52.113Z,14.00
2018-08-10T03:08:19.872Z,14.00
2018-08-10T03:10:47.633Z,14.00
2018-08-10T03:13:15.414Z,13.90
2018-08-10T03:15:43.166Z,13.80
2018-08-10T03:18:10.924Z,13.90
2018-08-10T03:20:38.649Z,13.90
2018-08-10T03:23:06.418Z,13.90
2018-08-10T03:25:34.227Z,13.80
2018-08-10T03:28:02.010Z,13.70
2018-08-10T03:30:29.747Z,13.70
2018-08-10T03:32:57.519Z,13.70
2018-08-10T03:35:25.233Z,13.70
2018-08-10T03:37:52.981Z,13.50
2018-08-10T03:40:20.702Z,13.50
2018-08-10T03:42:48.452Z,13.40
2018-08-10T03:45:16.165Z,13.40
2018-08-10T03:47:43.945Z,13.30
2018-08-10T03:50:13.895Z,13.30
2018-08-10T03:52:42.148Z,13.40
2018-08-10T03:55:10.444Z,13.40
2018-08-10T03:57:38.549Z,13.40
2018-08-10T04:00:07.213Z,13.40
2018-08-10T04:02:34.974Z,13.40
2018-08-10T04:05:02.742Z,13.30
2018-08-10T04:07:30.506Z,13.20
2018-08-10T04:09:58.238Z,13.20
2018-08-10T04:12:26.034Z,13.20
2018-08-10T04:14:53.803Z,13.20
2018-08-10T04:17:24.446Z,13.00
2018-08-10T04:19:53.813Z,13.00
2018-08-10T04:22:22.030Z,13.10
2018-08-10T04:24:49.998Z,13.10
2018-08-10T04:27:17.754Z,13.10
2018-08-10T04:29:45.518Z,13.10
2018-08-10T04:32:13.239Z,13.00
2018-08-10T04:34:41.010Z,12.90
2018-08-10T04:37:08.750Z,13.00
2018-08-10T04:39:36.517Z,13.00
2018-08-10T04:42:04.246Z,12.90
2018-08-10T04:44:32.034Z,13.00
2018-08-10T04:46:59.765Z,13.00
2018-08-10T04:49:27.740Z,13.10
2018-08-10T04:51:55.957Z,13.20
2018-08-10T04:54:23.722Z,13.20
2018-08-10T04:56:53.452Z,13.20
2018-08-10T04:59:22.122Z,13.20
2018-08-10T05:01:50.202Z,13.20
2018-08-10T05:04:19.064Z,13.30
2018-08-10T05:06:49.243Z,13.30
2018-08-10T05:09:18.733Z,13.30
2018-08-10T05:11:46.551Z,13.40
2018-08-10T05:14:14.852Z,13.50
2018-08-10T05:16:43.525Z,13.60
2018-08-10T05:19:12.419Z,13.70
2018-08-10T05:21:40.634Z,13.90
2018-08-10T05:24:08.458Z,13.90
2018-08-10T05:26:36.190Z,13.90
2018-08-10T05:29:04.402Z,13.90
2018-08-10T05:31:32.141Z,14.00
2018-08-10T05:34:00.417Z,14.10
2018-08-10T05:36:28.183Z,14.20
2018-08-10T05:38:55.969Z,14.30
2018-08-10T05:41:24.029Z,14.40
2018-08-10T05:43:52.453Z,14.50
2018-08-10T05:46:21.530Z,14.60
2018-08-10T05:48:49.393Z,14.70
2018-08-10T05:51:17.733Z,14.80
2018-08-10T05:53:45.688Z,15.00
2018-08-10T05:56:13.414Z,15.30
2018-08-10T05:58:41.143Z,15.40
2018-08-10T06:01:08.968Z,15.50
2018-08-10T06:03:36.789Z,15.70
2018-08-10T06:06:04.510Z,15.90
2018-08-10T06:08:32.246Z,16.10
2018-08-10T06:10:59.994Z,16.00
2018-08-10T06:13:27.741Z,16.10
2018-08-10T06:15:55.501Z,16.20
2018-08-10T06:18:23.222Z,16.30
2018-08-10T06:20:51.010Z,16.40
2018-08-10T06:23:18.755Z,16.50
2018-08-10T06:25:46.506Z,16.60
2018-08-10T06:28:14.276Z,16.80
2018-08-10T06:30:42.082Z,16.90
2018-08-10T06:33:09.817Z,16.70
2018-08-10T06:35:37.573Z,16.80
2018-08-10T06:38:05.478Z,17.00
2018-08-10T06:40:33.265Z,17.20
2018-08-10T06:43:01.001Z,17.50
2018-08-10T06:45:31.288Z,17.90
2018-08-10T06:47:59.066Z,18.00
2018-08-10T06:50:27.289Z,18.10
2018-08-10T06:52:55.046Z,18.20
2018-08-10T06:55:22.817Z,18.10
2018-08-10T06:57:50.658Z,18.30
2018-08-10T07:00:19.118Z,18.60
2018-08-10T07:02:46.838Z,18.70
2018-08-10T07:05:14.593Z,18.90
2018-08-10T07:07:44.081Z,19.10
2018-08-10T07:10:13.511Z,19.00
2018-08-10T07:12:43.732Z,19.00
2018-08-10T07:15:13.114Z,19.20
2018-08-10T07:17:42.234Z,19.30
2018-08-10T07:20:11.052Z,19.50
2018-08-10T07:22:40.372Z,19.40
2018-08-10T07:25:09.241Z,19.60
2018-08-10T07:27:36.989Z,19.50
2018-08-10T07:30:04.938Z,19.80
2018-08-10T07:32:34.547Z,20.30
2018-08-10T07:35:02.297Z,20.30
2018-08-10T07:37:30.041Z,20.10
2018-08-10T07:40:00.391Z,20.40
2018-08-10T07:42:28.759Z,19.60
2018-08-10T07:44:58.231Z,20.20
2018-08-10T07:47:27.216Z,20.40
2018-08-10T07:49:54.964Z,20.50
2018-08-10T07:52:25.333Z,20.70
2018-08-10T07:54:55.343Z,20.70
2018-08-10T07:57:25.522Z,20.30
2018-08-10T07:59:53.365Z,20.60
2018-08-10T08:02:21.678Z,20.50
2018-08-10T08:04:49.422Z,20.90
2018-08-10T08:07:17.193Z,21.20
2018-08-10T08:09:44.918Z,21.90
2018-08-10T08:12:12.734Z,21.80
2018-08-10T08:14:40.441Z,22.20
2018-08-10T08:17:08.241Z,21.60
2018-08-10T08:19:36.242Z,21.60
2018-08-10T08:22:04.106Z,21.00
2018-08-10T08:24:31.853Z,20.40
2018-08-10T08:26:59.658Z,20.70
2018-08-10T08:29:27.366Z,20.80
2018-08-10T08:31:55.127Z,20.90
2018-08-10T08:34:22.877Z,21.60
2018-08-10T08:36:50.663Z,21.20
2018-08-10T08:40:27.933Z,20.60
2018-08-10T08:42:55.777Z,21.40
2018-08-10T08:45:32.232Z,22.30
2018-08-10T08:47:59.846Z,21.30
2018-08-10T08:50:27.607Z,22.10
2018-08-10T08:52:55.363Z,22.30
2018-08-10T08:55:28.826Z,21.70
2018-08-10T08:57:56.614Z,22.20
2018-08-10T09:00:24.370Z,22.70
2018-08-10T09:02:52.142Z,23.30
2018-08-10T09:05:19.886Z,22.80
2018-08-10T09:07:47.629Z,22.50
2018-08-10T09:10:16.680Z,22.20
2018-08-10T09:12:44.377Z,22.00
2018-08-10T09:15:14.651Z,22.00
2018-08-10T09:17:42.662Z,22.20
2018-08-10T09:20:11.176Z,22.20
2018-08-10T09:22:38.953Z,22.30
2018-08-10T09:25:07.925Z,22.70
2018-08-10T09:27:35.777Z,22.20
2018-08-10T09:30:04.820Z,22.40
2018-08-10T09:32:32.595Z,22.20
2018-08-10T09:35:00.377Z,21.80
2018-08-10T09:37:28.642Z,22.30
2018-08-10T09:39:56.457Z,22.30
2018-08-10T09:42:24.198Z,22.30
2018-08-10T09:44:51.941Z,23.00
2018-08-10T09:47:19.661Z,22.60
2018-08-10T09:49:48.510Z,22.50
2018-08-10T09:52:16.419Z,23.10
2018-08-10T09:55:30.937Z,23.70
2018-08-10T09:58:04.447Z,23.10
2018-08-10T10:00:37.705Z,23.20
2018-08-10T10:03:11.090Z,23.20
2018-08-10T10:05:39.890Z,22.80
2018-08-10T10:08:09.130Z,22.80
2018-08-10T10:10:37.801Z,23.20
2018-08-10T10:13:06.577Z,23.50
2018-08-10T10:15:34.348Z,24.00
2018-08-10T10:18:02.102Z,24.20
2018-08-10T10:20:29.902Z,23.80
2018-08-10T10:22:57.682Z,24.10
2018-08-10T10:25:25.441Z,24.40
2018-08-10T10:27:53.185Z,24.80
2018-08-10T10:30:20.969Z,24.00
2018-08-10T10:32:48.761Z,24.80
2018-08-10T10:35:16.503Z,24.60
2018-08-10T10:37:44.238Z,23.70
2018-08-10T10:40:12.406Z,23.90
2018-08-10T10:42:40.454Z,24.10
2018-08-10T10:45:09.266Z,24.10
2018-08-10T10:47:37.102Z,25.40
2018-08-10T10:50:05.321Z,25.50
2018-08-10T10:52:33.066Z,24.50
2018-08-10T10:55:00.822Z,23.90
2018-08-10T10:57:28.622Z,24.90
2018-08-10T10:59:56.384Z,24.40
2018-08-10T11:02:24.147Z,24.40
2018-08-10T11:04:51.874Z,24.50
2018-08-10T11:07:19.626Z,24.50
2018-08-10T11:09:47.349Z,24.90
2018-08-10T11:12:22.014Z,25.00
2018-08-10T11:14:49.861Z,25.50
2018-08-10T11:17:17.667Z,24.30
2018-08-10T11:19:45.493Z,24.00
2018-08-10T11:22:13.242Z,23.40
2018-08-10T11:24:40.966Z,23.30
2018-08-10T11:27:08.726Z,23.80
2018-08-10T11:29:36.466Z,25.30
2018-08-10T11:32:04.331Z,26.20
2018-08-10T11:34:31.994Z,26.10
2018-08-10T11:36:59.757Z,25.90
2018-08-10T11:39:27.515Z,26.00
2018-08-10T11:41:55.278Z,25.90
2018-08-10T11:44:23.010Z,26.60
2018-08-10T11:46:50.773Z,26.50
2018-08-10T11:49:19.454Z,26.20
2018-08-10T11:51:47.221Z,26.70
2018-08-10T11:54:15.022Z,26.50
2018-08-10T11:56:42.794Z,24.90
2018-08-10T11:59:10.542Z,25.20
2018-08-10T12:01:38.302Z,25.20
2018-08-10T12:04:06.053Z,25.20
2018-08-10T12:06:33.860Z,25.70
2018-08-10T12:09:01.626Z,26.50
2018-08-10T12:11:29.378Z,27.20
2018-08-10T12:13:57.170Z,28.00
2018-08-10T12:16:25.005Z,28.10
2018-08-10T12:18:52.855Z,28.10
2018-08-10T12:21:20.579Z,28.60
2018-08-10T12:23:48.412Z,28.00
2018-08-10T12:26:16.193Z,29.40
2018-08-10T12:28:43.957Z,29.60
2018-08-10T12:31:11.681Z,30.00
2018-08-10T12:33:39.441Z,31.00
2018-08-10T12:36:08.428Z,29.70
2018-08-10T12:38:36.726Z,30.60
2018-08-10T12:41:04.454Z,30.60
2018-08-10T12:43:32.193Z,31.40
2018-08-10T12:45:59.921Z,31.70
2018-08-10T12:48:27.844Z,32.20
2018-08-10T12:50:55.614Z,32.20
2018-08-10T12:53:23.409Z,29.60
2018-08-10T12:55:51.130Z,29.70
2018-08-10T12:58:18.901Z,29.60
2018-08-10T13:00:46.674Z,29.90
2018-08-10T13:03:14.451Z,30.60
2018-08-10T13:05:42.185Z,30.30
2018-08-10T13:08:09.951Z,30.20
2018-08-10T13:10:37.721Z,30.00
2018-08-10T13:13:05.706Z,30.50
2018-08-10T13:15:33.437Z,29.70
2018-08-10T13:18:01.190Z,30.40
2018-08-10T13:20:28.947Z,31.50
2018-08-10T13:22:56.674Z,30.40
2018-08-10T13:25:24.453Z,30.50
2018-08-10T13:27:52.173Z,29.80
2018-08-10T13:30:19.922Z,29.10
2018-08-10T13:32:47.645Z,29.90
2018-08-10T13:35:15.394Z,30.80
2018-08-10T13:37:43.128Z,30.20
2018-08-10T13:40:10.917Z,29.40
2018-08-10T13:42:38.655Z,29.30
2018-08-10T13:45:07.869Z,29.10
2018-08-10T13:47:35.650Z,27.00
2018-08-10T13:50:04.626Z,26.80
2018-08-10T13:52:32.386Z,26.00
2018-08-10T13:55:00.125Z,27.10
2018-08-10T13:57:27.865Z,27.60
2018-08-10T13:59:55.633Z,27.40
2018-08-10T14:02:23.565Z,26.30
2018-08-10T14:04:51.378Z,27.20
2018-08-10T14:07:19.132Z,27.30
2018-08-10T14:09:46.873Z,27.80
2018-08-10T14:12:14.641Z,27.30
2018-08-10T14:14:42.441Z,27.30
2018-08-10T14:17:10.167Z,27.80
2018-08-10T14:19:37.953Z,28.60
2018-08-10T14:22:05.997Z,28.10
2018-08-10T14:24:33.797Z,28.20
2018-08-10T14:27:01.526Z,27.90
2018-08-10T14:29:29.326Z,28.30
2018-08-10T14:31:57.077Z,27.50
2018-08-10T14:34:24.907Z,28.40
2018-08-10T14:36:52.674Z,28.50
2018-08-10T14:39:20.439Z,28.30
2018-08-10T14:41:48.163Z,28.10
2018-08-10T14:44:15.944Z,28.20
2018-08-10T14:46:43.703Z,28.50
2018-08-10T14:49:11.569Z,28.20
2018-08-10T14:51:39.882Z,28.20
2018-08-10T14:54:07.602Z,29.20
2018-08-10T14:56:35.370Z,29.00
2018-08-10T14:59:03.153Z,29.30
2018-08-10T15:01:30.965Z,28.30
2018-08-10T15:03:58.809Z,28.30
2018-08-10T15:06:26.567Z,28.30
2018-08-10T15:08:54.318Z,27.60
2018-08-10T15:11:22.075Z,27.30
2018-08-10T15:13:49.842Z,28.30
2018-08-10T15:16:17.620Z,28.10
2018-08-10T15:18:45.346Z,26.30
2018-08-10T15:21:13.099Z,26.10
2018-08-10T15:23:40.857Z,26.90
2018-08-10T15:26:08.741Z,27.20
2018-08-10T15:28:36.461Z,26.80
2018-08-10T15:31:04.222Z,26.90
2018-08-10T15:33:32.110Z,27.30
2018-08-10T15:35:59.877Z,27.00
2018-08-10T15:38:27.691Z,27.30
2018-08-10T15:40:55.434Z,27.20
2018-08-10T15:43:23.156Z,26.60
2018-08-10T15:45:50.938Z,26.90
2018-08-10T15:48:18.686Z,26.70
2018-08-10T15:50:46.450Z,26.10
2018-08-10T15:53:14.186Z,25.90
2018-08-10T15:55:41.990Z,26.00
2018-08-10T15:58:09.741Z,25.90
2018-08-10T16:00:38.070Z,26.20
2018-08-10T16:03:05.834Z,26.20
2018-08-10T16:05:33.605Z,26.50
2018-08-10T16:08:01.370Z,26.80
2018-08-10T16:10:29.170Z,26.30
2018-08-10T16:12:56.958Z,25.70
2018-08-10T16:15:24.721Z,25.50
2018-08-10T16:17:52.469Z,25.50
2018-08-10T16:20:21.525Z,25.60
2018-08-10T16:22:49.526Z,25.60
2018-08-10T16:25:17.310Z,25.50
2018-08-10T16:27:45.545Z,25.70
2018-08-10T16:30:13.921Z,25.70
2018-08-10T16:32:42.413Z,25.40
2018-08-10T16:35:10.774Z,25.50
2018-08-10T16:37:39.669Z,25.40
2018-08-10T16:40:08.741Z,25.50
2018-08-10T16:42:37.146Z,25.30
2018-08-10T16:45:05.293Z,25.20
2018-08-10T16:47:33.090Z,25.10
2018-08-10T16:50:00.818Z,24.90
2018-08-10T16:52:28.577Z,24.80
2018-08-10T16:54:56.302Z,24.90
2018-08-10T16:57:24.066Z,24.70
2018-08-10T16:59:51.838Z,24.70
2018-08-10T17:02:19.633Z,24.70
2018-08-10T17:04:47.382Z,24.60
2018-08-10T17:07:15.158Z,24.60
2018-08-10T17:09:42.878Z,24.50
2018-08-10T17:12:10.701Z,24.60
2018-08-10T17:14:38.436Z,24.60
2018-08-10T17:17:06.237Z,24.50
2018-08-10T17:19:34.190Z,24.50
2018-08-10T17:22:01.944Z,24.50
2018-08-10T17:24:29.671Z,24.40
2018-08-10T17:26:57.476Z,24.30
2018-08-10T17:29:25.234Z,24.20
2018-08-10T17:31:53.258Z,24.00
2018-08-10T17:34:21.277Z,23.90
2018-08-10T17:36:49.053Z,23.80
2018-08-10T17:39:16.832Z,23.70
2018-08-10T17:41:44.677Z,23.50
2018-08-10T17:44:12.753Z,23.30
2018-08-10T17:46:40.520Z,23.20
2018-08-10T17:49:08.466Z,23.10
2018-08-10T17:51:36.282Z,22.90
2018-08-10T17:54:04.450Z,22.80
2018-08-10T17:56:32.250Z,22.70
2018-08-10T17:59:00.316Z,22.40
2018-08-10T18:01:28.201Z,22.20
2018-08-10T18:03:55.953Z,22.10
2018-08-10T18:06:23.697Z,22.10
2018-08-10T18:08:51.462Z,21.90
2018-08-10T18:11:19.281Z,21.80
2018-08-10T18:13:47.090Z,21.80
2018-08-10T18:16:14.861Z,21.60
2018-08-10T18:18:42.606Z,21.50
2018-08-10T18:21:10.321Z,21.50
2018-08-10T18:23:38.118Z,21.40
2018-08-10T18:26:05.852Z,21.30
2018-08-10T18:28:33.741Z,21.00
2018-08-10T18:31:01.578Z,21.00
2018-08-10T18:33:29.385Z,20.90
2018-08-10T18:35:57.168Z,20.90
2018-08-10T18:38:24.926Z,20.70
2018-08-10T18:40:52.686Z,20.60
2018-08-10T18:43:20.453Z,20.50
2018-08-10T18:45:49.057Z,20.40
2018-08-10T18:48:16.802Z,20.30
2018-08-10T18:50:44.620Z,20.20
2018-08-10T18:53:12.946Z,20.20
2018-08-10T18:55:40.681Z,20.00
2018-08-10T18:58:08.430Z,19.70
2018-08-10T19:00:36.226Z,19.80
2018-08-10T19:03:04.214Z,19.80
2018-08-10T19:05:31.960Z,19.60
2018-08-10T19:07:59.693Z,19.50
2018-08-10T19:10:29.177Z,19.50
2018-08-10T19:12:56.962Z,19.50
2018-08-10T19:15:24.770Z,19.40
2018-08-10T19:17:52.559Z,19.30
2018-08-10T19:20:20.350Z,19.30
2018-08-10T19:22:48.377Z,19.30
2018-08-10T19:25:16.876Z,19.30
2018-08-10T19:27:44.554Z,19.10
2018-08-10T19:30:15.513Z,19.10
2018-08-10T19:32:44.450Z,19.00
2018-08-10T19:35:12.265Z,19.00
2018-08-10T19:37:40.275Z,18.90
2018-08-10T19:40:09.774Z,19.00
2018-08-10T19:42:37.649Z,19.00
2018-08-10T19:45:05.994Z,19.00
2018-08-10T19:47:33.995Z,19.00
2018-08-10T19:50:01.985Z,18.90
2018-08-10T19:52:30.010Z,18.90
2018-08-10T19:54:57.760Z,18.80
2018-08-10T19:57:25.526Z,18.90
2018-08-10T19:59:53.301Z,18.90
2018-08-10T20:02:21.045Z,18.90
2018-08-10T20:04:48.849Z,18.90
2018-08-10T20:07:16.581Z,19.00
2018-08-10T20:09:44.326Z,19.00
2018-08-10T20:12:12.127Z,19.00
2018-08-10T20:14:39.890Z,18.90
2018-08-10T20:17:07.776Z,18.90
2018-08-10T20:19:35.561Z,18.90
2018-08-10T20:22:03.358Z,18.90
2018-08-10T20:24:31.290Z,18.70
2018-08-10T20:26:59.020Z,18.70
2018-08-10T20:29:26.773Z,18.60
2018-08-10T20:31:54.510Z,18.60
2018-08-10T20:34:22.393Z,18.60
2018-08-10T20:36:50.119Z,18.50
2018-08-10T20:39:17.891Z,18.40
2018-08-10T20:41:45.650Z,18.40
2018-08-10T20:44:13.414Z,18.30
2018-08-10T20:46:41.165Z,18.20
2018-08-10T20:49:08.930Z,18.20
2018-08-10T20:51:36.682Z,18.30
2018-08-10T20:54:04.492Z,18.30
2018-08-10T20:56:32.258Z,18.10
2018-08-10T20:58:59.989Z,18.00
2018-08-10T21:01:27.858Z,17.90
2018-08-10T21:03:55.619Z,17.80
2018-08-10T21:06:23.392Z,17.80
2018-08-10T21:08:51.125Z,17.80
2018-08-10T21:11:19.417Z,17.80
2018-08-10T21:13:47.153Z,17.70
2018-08-10T21:16:14.921Z,17.60
2018-08-10T21:18:42.650Z,17.50
2018-08-10T21:21:10.413Z,17.40
2018-08-10T21:23:38.141Z,17.40
2018-08-10T21:26:05.908Z,17.50
2018-08-10T21:28:33.665Z,17.60
2018-08-10T21:31:01.512Z,17.60
2018-08-10T21:33:29.290Z,17.40
2018-08-10T21:35:57.074Z,17.30
2018-08-10T21:38:24.834Z,17.40
2018-08-10T21:40:52.581Z,17.40
2018-08-10T21:43:20.374Z,17.40
2018-08-10T21:45:48.074Z,17.30
2018-08-10T21:48:15.838Z,17.30
2018-08-10T21:50:43.637Z,17.30
2018-08-10T21:53:11.364Z,17.30
2018-08-10T21:55:39.129Z,17.30
2018-08-10T21:58:06.951Z,17.30
2018-08-10T22:00:51.430Z,17.30
2018-08-10T22:03:19.941Z,17.30
2018-08-10T22:05:48.394Z,17.30
2018-08-10T22:08:16.695Z,17.30
2018-08-10T22:10:44.426Z,17.30
2018-08-10T22:13:17.706Z,17.30
2018-08-10T22:15:50.873Z,17.20
2018-08-10T22:18:24.081Z,17.10
2018-08-10T22:20:51.873Z,17.10
2018-08-10T22:23:19.662Z,17.00
2018-08-10T22:25:47.709Z,17.00
2018-08-10T22:28:15.658Z,16.90
2018-08-10T22:30:43.398Z,16.80
2018-08-10T22:33:11.173Z,16.80
2018-08-10T22:35:38.958Z,16.80
2018-08-10T22:38:06.834Z,16.80
2018-08-10T22:40:34.597Z,16.70
2018-08-10T22:43:02.627Z,16.70
2018-08-10T22:45:30.355Z,16.70
2018-08-10T22:47:58.189Z,16.60
2018-08-10T22:50:26.050Z,16.60
2018-08-10T22:52:53.825Z,16.70
2018-08-10T22:55:21.574Z,16.60
2018-08-10T22:57:49.313Z,16.60
2018-08-10T23:00:17.065Z,16.50
2018-08-10T23:02:44.813Z,16.50
2018-08-10T23:05:12.570Z,16.50
2018-08-10T23:07:40.373Z,16.40
2018-08-10T23:10:09.010Z,16.40
2018-08-10T23:12:36.790Z,16.40
2018-08-10T23:15:05.253Z,16.40
2018-08-10T23:17:33.009Z,16.40
2018-08-10T23:20:00.754Z,16.30
2018-08-10T23:22:28.514Z,16.30
2018-08-10T23:24:56.242Z,16.30
2018-08-10T23:27:24.570Z,16.30
2018-08-10T23:29:52.297Z,16.30
2018-08-10T23:32:20.058Z,16.30
2018-08-10T23:34:47.802Z,16.40
2018-08-10T23:37:15.529Z,16.30
2018-08-10T23:39:43.302Z,16.30
2018-08-10T23:42:11.062Z,16.20
2018-08-10T23:44:38.799Z,16.20
2018-08-10T23:47:06.569Z,16.20
2018-08-10T23:49:34.343Z,16.30
2018-08-10T23:52:02.057Z,16.30
2018-08-10T23:54:29.800Z,16.30
2018-08-10T23:56:57.525Z,16.30
2018-08-10T23:59:25.336Z,16.20
